createdAt,value
2022-07-27T00:00:49.085Z,960.13
2022-07-27T00:01:50.776Z,960.1
2022-07-27T00:02:51.609Z,960.13
2022-07-27T00:05:49.103Z,960.12
2022-07-27T00:06:49.070Z,960.15
2022-07-27T00:07:49.060Z,960.17
2022-07-27T00:08:49.207Z,960.16
2022-07-27T00:09:49.182Z,960.15
2022-07-27T00:10:49.069Z,960.13
2022-07-27T00:11:49.123Z,960.11
2022-07-27T00:13:49.148Z,960.15
2022-07-27T00:14:49.221Z,960.1
2022-07-27T00:15:49.241Z,960.08
2022-07-27T00:16:49.217Z,960.06
2022-07-27T00:17:49.232Z,960.1
2022-07-27T00:18:49.200Z,960.09
2022-07-27T00:19:49.165Z,960.08
2022-07-27T00:21:49.192Z,960.06
2022-07-27T00:22:49.263Z,960.05
2022-07-27T00:23:49.153Z,960.03
2022-07-27T00:25:49.167Z,960
2022-07-27T00:26:49.234Z,959.98
2022-07-27T00:27:49.209Z,959.96
2022-07-27T00:29:49.245Z,959.91
2022-07-27T00:30:49.130Z,959.89
2022-07-27T00:31:49.168Z,959.93
2022-07-27T00:32:49.147Z,959.88
2022-07-27T00:33:49.135Z,959.9
2022-07-27T00:35:49.252Z,959.87
2022-07-27T00:36:49.141Z,959.89
2022-07-27T00:37:49.397Z,959.87
2022-07-27T00:38:49.252Z,959.89
2022-07-27T00:39:49.147Z,959.85
2022-07-27T00:40:49.295Z,959.84
2022-07-27T00:42:49.158Z,959.86
2022-07-27T00:43:50.591Z,959.82
2022-07-27T00:44:49.163Z,959.84
2022-07-27T00:45:49.171Z,959.82
2022-07-27T00:46:49.338Z,959.78
2022-07-27T00:49:49.175Z,959.76
2022-07-27T00:50:49.276Z,959.77
2022-07-27T00:51:49.166Z,959.73
2022-07-27T00:52:51.155Z,959.77
2022-07-27T00:55:49.311Z,959.76
2022-07-27T00:56:49.274Z,959.75
2022-07-27T00:57:53.115Z,959.73
2022-07-27T00:58:49.441Z,959.68
2022-07-27T01:00:49.274Z,959.7
2022-07-27T01:01:49.318Z,959.72
2022-07-27T01:02:49.296Z,959.71
2022-07-27T01:03:49.263Z,959.73
2022-07-27T01:04:49.200Z,959.76
2022-07-27T01:05:49.207Z,959.73
2022-07-27T01:07:49.237Z,959.74
2022-07-27T01:08:49.307Z,959.75
2022-07-27T01:09:49.281Z,959.71
2022-07-27T01:10:49.210Z,959.69
2022-07-27T01:11:49.409Z,959.71
2022-07-27T01:12:49.271Z,959.68
2022-07-27T01:13:49.265Z,959.65
2022-07-27T01:14:49.316Z,959.64
2022-07-27T01:16:49.244Z,959.59
2022-07-27T01:17:49.323Z,959.58
2022-07-27T01:18:49.391Z,959.59
2022-07-27T01:19:49.245Z,959.57
2022-07-27T01:20:49.226Z,959.54
2022-07-27T01:22:49.256Z,959.58
2022-07-27T01:23:49.250Z,959.51
2022-07-27T01:25:49.256Z,959.5
2022-07-27T01:26:49.244Z,959.52
2022-07-27T01:27:49.409Z,959.5
2022-07-27T01:28:49.259Z,959.45
2022-07-27T01:29:49.268Z,959.46
2022-07-27T01:30:50.424Z,959.48
2022-07-27T01:31:49.332Z,959.49
2022-07-27T01:32:49.273Z,959.46
2022-07-27T01:33:49.409Z,959.45
2022-07-27T01:34:49.275Z,959.41
2022-07-27T01:35:49.339Z,959.44
2022-07-27T01:36:50.417Z,959.39
2022-07-27T01:37:49.382Z,959.42
2022-07-27T01:38:49.288Z,959.37
2022-07-27T01:39:49.421Z,959.39
2022-07-27T01:40:49.285Z,959.41
2022-07-27T01:42:49.417Z,959.43
2022-07-27T01:43:49.299Z,959.46
2022-07-27T01:44:49.295Z,959.49
2022-07-27T01:45:49.311Z,959.48
2022-07-27T01:46:49.507Z,959.51
2022-07-27T01:47:49.307Z,959.48
2022-07-27T01:49:49.307Z,959.49
2022-07-27T01:50:49.463Z,959.48
2022-07-27T01:51:49.441Z,959.47
2022-07-27T01:52:49.328Z,959.5
2022-07-27T01:53:50.519Z,959.49
2022-07-27T01:55:49.402Z,959.48
2022-07-27T01:56:50.542Z,959.46
2022-07-27T01:57:49.438Z,959.44
2022-07-27T01:58:49.407Z,959.45
2022-07-27T01:59:49.472Z,959.48
2022-07-27T02:00:49.463Z,959.51
2022-07-27T02:01:49.448Z,959.54
2022-07-27T02:02:49.489Z,959.53
2022-07-27T02:03:49.359Z,959.57
2022-07-27T02:05:49.579Z,959.6
2022-07-27T02:06:49.348Z,959.61
2022-07-27T02:07:49.370Z,959.62
2022-07-27T02:08:49.406Z,959.63
2022-07-27T02:09:49.366Z,959.62
2022-07-27T02:10:49.377Z,959.69
2022-07-27T02:11:49.387Z,959.67
2022-07-27T02:12:49.462Z,959.69
2022-07-27T02:13:49.687Z,959.64
2022-07-27T02:14:49.404Z,959.67
2022-07-27T02:16:50.022Z,959.66
2022-07-27T02:17:49.644Z,959.69
2022-07-27T02:18:49.552Z,959.68
2022-07-27T02:20:49.398Z,959.69
2022-07-27T02:22:50.829Z,959.66
2022-07-27T02:23:49.513Z,959.61
2022-07-27T02:24:49.472Z,959.64
2022-07-27T02:25:49.448Z,959.66
2022-07-27T02:26:49.589Z,959.67
2022-07-27T02:27:49.409Z,959.68
2022-07-27T02:28:49.414Z,959.63
2022-07-27T02:29:49.524Z,959.67
2022-07-27T02:30:49.592Z,959.66
2022-07-27T02:32:49.531Z,959.68
2022-07-27T02:33:49.505Z,959.65
2022-07-27T02:34:49.472Z,959.66
2022-07-27T02:35:49.530Z,959.68
2022-07-27T02:36:49.491Z,959.71
2022-07-27T02:37:49.455Z,959.7
2022-07-27T02:38:49.433Z,959.69
2022-07-27T02:39:49.494Z,959.68
2022-07-27T02:40:49.572Z,959.65
2022-07-27T02:41:49.531Z,959.66
2022-07-27T02:42:49.507Z,959.67
2022-07-27T02:45:49.679Z,959.61
2022-07-27T02:48:49.558Z,959.58
2022-07-27T02:51:49.621Z,959.55
2022-07-27T02:52:49.471Z,959.54
2022-07-27T02:54:50.940Z,959.51
2022-07-27T02:57:49.472Z,959.5
2022-07-27T02:58:49.588Z,959.49
2022-07-27T02:59:49.559Z,959.51
2022-07-27T03:00:51.604Z,959.47
2022-07-27T03:01:49.819Z,959.44
2022-07-27T03:02:49.486Z,959.4
2022-07-27T03:03:49.519Z,959.41
2022-07-27T03:04:49.640Z,959.43
2022-07-27T03:06:50.692Z,959.4
2022-07-27T03:08:49.576Z,959.36
2022-07-27T03:09:52.556Z,959.33
2022-07-27T03:10:49.617Z,959.36
2022-07-27T03:11:49.585Z,959.37
2022-07-27T03:12:53.551Z,959.34
2022-07-27T03:13:49.621Z,959.38
2022-07-27T03:14:49.583Z,959.37
2022-07-27T03:15:49.720Z,959.39
2022-07-27T03:16:49.526Z,959.35
2022-07-27T03:17:50.562Z,959.33
2022-07-27T03:20:49.592Z,959.32
2022-07-27T03:21:49.532Z,959.36
2022-07-27T03:22:49.623Z,959.33
2022-07-27T03:23:49.542Z,959.32
2022-07-27T03:25:49.625Z,959.3
2022-07-27T03:26:49.597Z,959.33
2022-07-27T03:27:49.553Z,959.34
2022-07-27T03:28:49.632Z,959.37
2022-07-27T03:29:49.709Z,959.36
2022-07-27T03:30:49.575Z,959.4
2022-07-27T03:31:49.639Z,959.37
2022-07-27T03:32:49.699Z,959.39
2022-07-27T03:35:49.706Z,959.41
2022-07-27T03:37:49.645Z,959.38
2022-07-27T03:38:49.619Z,959.4
2022-07-27T03:39:49.689Z,959.38
2022-07-27T03:40:49.577Z,959.39
2022-07-27T03:42:49.687Z,959.38
2022-07-27T03:43:49.598Z,959.4
2022-07-27T03:44:49.829Z,959.42
2022-07-27T03:45:49.726Z,959.43
2022-07-27T03:47:49.736Z,959.44
2022-07-27T03:48:49.741Z,959.42
2022-07-27T03:49:49.666Z,959.44
2022-07-27T03:50:49.731Z,959.43
2022-07-27T03:52:49.763Z,959.46
2022-07-27T03:53:49.618Z,959.45
2022-07-27T03:54:49.618Z,959.47
2022-07-27T03:55:49.665Z,959.44
2022-07-27T03:56:49.617Z,959.46
2022-07-27T03:57:49.708Z,959.45
2022-07-27T03:59:49.632Z,959.49
2022-07-27T04:01:50.869Z,959.51
2022-07-27T04:03:49.723Z,959.55
2022-07-27T04:04:49.787Z,959.52
2022-07-27T04:05:49.750Z,959.54
2022-07-27T04:06:49.717Z,959.56
2022-07-27T04:07:49.906Z,959.55
2022-07-27T04:08:49.753Z,959.59
2022-07-27T04:09:49.881Z,959.57
2022-07-27T04:10:49.803Z,959.58
2022-07-27T04:11:50.832Z,959.57
2022-07-27T04:12:49.860Z,959.56
2022-07-27T04:13:49.713Z,959.52
2022-07-27T04:14:49.763Z,959.51
2022-07-27T04:15:49.733Z,959.5
2022-07-27T04:16:49.739Z,959.54
2022-07-27T04:17:53.937Z,959.55
2022-07-27T04:18:49.748Z,959.54
2022-07-27T04:19:50.956Z,959.56
2022-07-27T04:20:49.676Z,959.55
2022-07-27T04:21:49.674Z,959.56
2022-07-27T04:22:49.796Z,959.58
2022-07-27T04:23:49.775Z,959.56
2022-07-27T04:24:49.740Z,959.53
2022-07-27T04:25:49.815Z,959.55
2022-07-27T04:26:49.790Z,959.54
2022-07-27T04:27:49.690Z,959.5
2022-07-27T04:28:49.816Z,959.49
2022-07-27T04:29:49.715Z,959.48
2022-07-27T04:30:50.016Z,959.45
2022-07-27T04:31:49.821Z,959.47
2022-07-27T04:32:49.796Z,959.48
2022-07-27T04:34:49.731Z,959.5
2022-07-27T04:35:49.798Z,959.47
2022-07-27T04:36:49.762Z,959.5
2022-07-27T04:37:58.038Z,959.48
2022-07-27T04:38:49.929Z,959.46
2022-07-27T04:39:49.768Z,959.51
2022-07-27T04:41:49.811Z,959.52
2022-07-27T04:42:51.132Z,959.5
2022-07-27T04:43:49.835Z,959.51
2022-07-27T04:44:49.809Z,959.58
2022-07-27T04:45:51.187Z,959.55
2022-07-27T04:46:49.737Z,959.54
2022-07-27T04:47:49.802Z,959.58
2022-07-27T04:48:49.906Z,959.56
2022-07-27T04:49:49.842Z,959.59
2022-07-27T04:50:49.813Z,959.57
2022-07-27T04:51:54.192Z,959.56
2022-07-27T04:52:49.762Z,959.61
2022-07-27T04:53:52.248Z,959.63
2022-07-27T04:54:49.891Z,959.6
2022-07-27T04:55:49.852Z,959.64
2022-07-27T04:56:49.927Z,959.59
2022-07-27T04:57:49.785Z,959.6
2022-07-27T04:58:49.855Z,959.61
2022-07-27T04:59:49.849Z,959.62
2022-07-27T05:00:49.844Z,959.63
2022-07-27T05:01:49.903Z,959.64
2022-07-27T05:04:49.868Z,959.66
2022-07-27T05:05:50.443Z,959.67
2022-07-27T05:06:49.901Z,959.72
2022-07-27T05:07:49.786Z,959.71
2022-07-27T05:08:49.941Z,959.74
2022-07-27T05:09:49.910Z,959.77
2022-07-27T05:10:49.898Z,959.74
2022-07-27T05:11:50.754Z,959.72
2022-07-27T05:12:49.906Z,959.73
2022-07-27T05:13:49.809Z,959.75
2022-07-27T05:14:49.942Z,959.74
2022-07-27T05:15:54.354Z,959.75
2022-07-27T05:16:51.026Z,959.73
2022-07-27T05:17:49.854Z,959.78
2022-07-27T05:18:49.912Z,959.77
2022-07-27T05:19:49.877Z,959.76
2022-07-27T05:20:49.996Z,959.79
2022-07-27T05:21:49.924Z,959.78
2022-07-27T05:22:49.887Z,959.79
2022-07-27T05:23:49.961Z,959.83
2022-07-27T05:24:49.934Z,959.8
2022-07-27T05:25:49.840Z,959.86
2022-07-27T05:27:54.400Z,959.87
2022-07-27T05:29:50.118Z,959.86
2022-07-27T05:30:49.941Z,959.88
2022-07-27T05:32:49.858Z,959.89
2022-07-27T05:33:52.335Z,959.87
2022-07-27T05:34:50.010Z,959.93
2022-07-27T05:35:49.972Z,959.89
2022-07-27T05:37:49.981Z,959.86
2022-07-27T05:38:49.981Z,959.9
2022-07-27T05:39:49.871Z,959.87
2022-07-27T05:41:49.894Z,959.85
2022-07-27T05:42:49.877Z,959.87
2022-07-27T05:44:49.983Z,959.84
2022-07-27T05:45:50.025Z,959.88
2022-07-27T05:46:49.957Z,959.85
2022-07-27T05:47:49.902Z,959.84
2022-07-27T05:48:50.023Z,959.87
2022-07-27T05:49:50.022Z,959.89
2022-07-27T05:50:50.009Z,959.9
2022-07-27T05:51:49.962Z,959.91
2022-07-27T05:52:50.034Z,959.92
2022-07-27T05:54:49.970Z,959.97
2022-07-27T05:55:57.883Z,959.95
2022-07-27T05:56:50.009Z,959.98
2022-07-27T05:57:49.987Z,959.96
2022-07-27T05:58:50.052Z,959.98
2022-07-27T05:59:50.134Z,959.95
2022-07-27T06:00:49.983Z,959.98
2022-07-27T06:01:49.942Z,960
2022-07-27T06:02:50.013Z,959.99
2022-07-27T06:03:50.058Z,960
2022-07-27T06:04:50.054Z,960.01
2022-07-27T06:05:50.015Z,960.03
2022-07-27T06:08:50.016Z,960.01
2022-07-27T06:09:49.947Z,960.04
2022-07-27T06:10:49.949Z,960.06
2022-07-27T06:11:50.024Z,960.05
2022-07-27T06:13:50.064Z,960.06
2022-07-27T06:14:50.862Z,960.03
2022-07-27T06:15:50.103Z,960.02
2022-07-27T06:16:50.134Z,960.03
2022-07-27T06:17:50.039Z,960.02
2022-07-27T06:18:50.108Z,960.05
2022-07-27T06:19:50.062Z,960.04
2022-07-27T06:20:50.040Z,960.02
2022-07-27T06:21:53.528Z,960.03
2022-07-27T06:22:50.084Z,960.05
2022-07-27T06:23:50.042Z,960.03
2022-07-27T06:24:50.024Z,960.07
2022-07-27T06:25:50.082Z,960.05
2022-07-27T06:27:50.121Z,960.06
2022-07-27T06:28:50.078Z,960.04
2022-07-27T06:29:49.993Z,960.02
2022-07-27T06:30:50.117Z,960.03
2022-07-27T06:31:50.138Z,960.02
2022-07-27T06:32:50.156Z,960
2022-07-27T06:33:51.055Z,959.98
2022-07-27T06:34:50.092Z,959.99
2022-07-27T06:35:50.059Z,959.96
2022-07-27T06:36:50.124Z,959.95
2022-07-27T06:37:50.092Z,960
2022-07-27T06:38:50.176Z,959.97
2022-07-27T06:39:50.142Z,960.02
2022-07-27T06:40:50.096Z,960.03
2022-07-27T06:42:50.131Z,960.06
2022-07-27T06:43:50.102Z,960.04
2022-07-27T06:44:50.071Z,960.09
2022-07-27T06:45:50.037Z,960.07
2022-07-27T06:46:50.093Z,960.08
2022-07-27T06:47:50.290Z,960.09
2022-07-27T06:48:50.178Z,960.18
2022-07-27T06:49:50.111Z,960.23
2022-07-27T06:50:50.108Z,960.29
2022-07-27T06:51:50.058Z,960.21
2022-07-27T06:52:50.065Z,960.16
2022-07-27T06:53:50.111Z,960.15
2022-07-27T06:54:50.051Z,960.2
2022-07-27T06:55:50.119Z,960.14
2022-07-27T06:56:50.109Z,960.13
2022-07-27T06:58:50.078Z,960.12
2022-07-27T06:59:50.211Z,960.14
2022-07-27T07:01:50.130Z,960.15
2022-07-27T07:02:50.195Z,960.13
2022-07-27T07:03:50.126Z,960.17
2022-07-27T07:04:50.146Z,960.11
2022-07-27T07:05:50.114Z,960.17
2022-07-27T07:06:50.177Z,960.16
2022-07-27T07:07:50.329Z,960.2
2022-07-27T07:08:50.098Z,960.21
2022-07-27T07:09:50.170Z,960.2
2022-07-27T07:11:50.096Z,960.15
2022-07-27T07:12:50.181Z,960.2
2022-07-27T07:13:50.151Z,960.17
2022-07-27T07:14:50.208Z,960.18
2022-07-27T07:15:50.394Z,960.19
2022-07-27T07:16:50.251Z,960.22
2022-07-27T07:17:50.215Z,960.2
2022-07-27T07:18:52.388Z,960.15
2022-07-27T07:19:50.122Z,960.17
2022-07-27T07:22:50.147Z,960.2
2022-07-27T07:23:50.235Z,960.19
2022-07-27T07:24:50.149Z,960.26
2022-07-27T07:25:50.126Z,960.18
2022-07-27T07:26:50.223Z,960.17
2022-07-27T07:28:50.181Z,960.21
2022-07-27T07:29:50.239Z,960.19
2022-07-27T07:30:50.204Z,960.18
2022-07-27T07:31:50.194Z,960.19
2022-07-27T07:32:50.234Z,960.23
2022-07-27T07:33:50.236Z,960.27
2022-07-27T07:34:50.156Z,960.26
2022-07-27T07:36:08.918Z,960.27
2022-07-27T07:36:51.214Z,960.29
2022-07-27T07:37:50.833Z,960.26
2022-07-27T07:38:50.165Z,960.23
2022-07-27T07:40:50.302Z,960.21
2022-07-27T07:41:50.180Z,960.19
2022-07-27T07:42:50.235Z,960.18
2022-07-27T07:43:50.180Z,960.21
2022-07-27T07:44:50.255Z,960.28
2022-07-27T07:45:51.726Z,960.35
2022-07-27T07:46:50.419Z,960.41
2022-07-27T07:47:50.260Z,960.44
2022-07-27T07:48:50.257Z,960.39
2022-07-27T07:49:50.230Z,960.41
2022-07-27T07:50:51.751Z,960.37
2022-07-27T07:52:50.304Z,960.31
2022-07-27T07:54:51.321Z,960.27
2022-07-27T07:55:50.309Z,960.25
2022-07-27T07:56:50.270Z,960.28
2022-07-27T07:57:50.636Z,960.29
2022-07-27T07:58:50.219Z,960.24
2022-07-27T07:59:50.368Z,960.21
2022-07-27T08:00:50.249Z,960.22
2022-07-27T08:01:50.257Z,960.24
2022-07-27T08:02:50.537Z,960.29
2022-07-27T08:03:51.171Z,960.32
2022-07-27T08:04:50.421Z,960.22
2022-07-27T08:05:50.237Z,960.24
2022-07-27T08:06:50.256Z,960.25
2022-07-27T08:07:50.237Z,960.22
2022-07-27T08:08:50.382Z,960.21
2022-07-27T08:09:50.246Z,960.23
2022-07-27T08:10:50.269Z,960.21
2022-07-27T08:12:50.364Z,960.18
2022-07-27T08:13:50.340Z,960.16
2022-07-27T08:14:50.265Z,960.18
2022-07-27T08:16:50.337Z,960.15
2022-07-27T08:17:50.256Z,960.12
2022-07-27T08:18:50.373Z,960.1
2022-07-27T08:19:50.314Z,960
2022-07-27T08:20:51.462Z,959.99
2022-07-27T08:22:50.361Z,959.97
2022-07-27T08:23:50.315Z,959.96
2022-07-27T08:24:50.380Z,959.97
2022-07-27T08:25:50.340Z,959.92
2022-07-27T08:26:50.286Z,959.96
2022-07-27T08:27:50.368Z,959.94
2022-07-27T08:29:51.771Z,959.96
2022-07-27T08:30:50.420Z,959.95
2022-07-27T08:32:50.293Z,959.92
2022-07-27T08:33:50.392Z,959.94
2022-07-27T08:34:50.463Z,959.91
2022-07-27T08:35:50.314Z,959.94
2022-07-27T08:36:50.395Z,959.93
2022-07-27T08:37:51.561Z,959.92
2022-07-27T08:38:50.313Z,959.9
2022-07-27T08:40:37.760Z,959.88
2022-07-27T08:40:50.503Z,959.89
2022-07-27T08:41:50.442Z,959.84
2022-07-27T08:42:50.408Z,959.79
2022-07-27T08:43:50.336Z,959.81
2022-07-27T08:44:50.331Z,959.83
2022-07-27T08:46:50.468Z,959.86
2022-07-27T08:47:50.346Z,959.82
2022-07-27T08:48:50.448Z,959.78
2022-07-27T08:49:50.540Z,959.77
2022-07-27T08:50:50.386Z,959.81
2022-07-27T08:51:50.422Z,959.72
2022-07-27T08:52:50.378Z,959.8
2022-07-27T08:53:52.921Z,959.82
2022-07-27T08:54:50.423Z,959.75
2022-07-27T08:55:50.483Z,959.9
2022-07-27T08:57:50.360Z,959.91
2022-07-27T08:58:50.430Z,959.9
2022-07-27T08:59:50.320Z,959.86
2022-07-27T09:00:50.497Z,959.89
2022-07-27T09:01:50.445Z,959.87
2022-07-27T09:02:50.409Z,959.89
2022-07-27T09:03:50.429Z,959.95
2022-07-27T09:04:50.408Z,959.87
2022-07-27T09:05:50.389Z,959.88
2022-07-27T09:06:52.973Z,959.9
2022-07-27T09:07:50.401Z,959.86
2022-07-27T09:08:53.297Z,959.9
2022-07-27T09:09:50.445Z,959.95
2022-07-27T09:10:50.408Z,959.93
2022-07-27T09:11:50.479Z,959.91
2022-07-27T09:12:50.450Z,959.89
2022-07-27T09:14:53.135Z,959.86
2022-07-27T09:16:16.081Z,959.85
2022-07-27T09:17:44.517Z,959.78
2022-07-27T09:17:50.692Z,959.85
2022-07-27T09:20:50.417Z,959.88
2022-07-27T09:21:50.455Z,959.86
2022-07-27T09:23:50.431Z,959.88
2022-07-27T09:24:50.714Z,959.86
2022-07-27T09:26:03.377Z,959.88
2022-07-27T09:26:50.582Z,959.9
2022-07-27T09:27:50.565Z,959.96
2022-07-27T09:30:50.634Z,959.97
2022-07-27T09:31:50.655Z,959.94
2022-07-27T09:32:52.935Z,959.92
2022-07-27T09:33:50.454Z,959.89
2022-07-27T09:34:50.542Z,959.93
2022-07-27T09:36:50.573Z,959.88
2022-07-27T09:37:50.538Z,959.85
2022-07-27T09:38:54.317Z,959.89
2022-07-27T09:39:50.579Z,959.88
2022-07-27T09:40:50.474Z,959.86
2022-07-27T09:43:05.423Z,959.88
2022-07-27T09:44:30.375Z,959.94
2022-07-27T09:44:53.731Z,959.9
2022-07-27T09:46:50.606Z,959.85
2022-07-27T09:47:50.492Z,959.84
2022-07-27T09:48:50.641Z,959.82
2022-07-27T09:49:50.563Z,959.77
2022-07-27T09:51:01.696Z,959.8
2022-07-27T09:52:00.418Z,959.82
2022-07-27T09:52:50.597Z,959.84
2022-07-27T09:53:51.557Z,959.86
2022-07-27T09:54:50.601Z,959.87
2022-07-27T09:56:50.634Z,959.86
2022-07-27T09:57:50.606Z,959.89
2022-07-27T10:00:50.653Z,959.87
2022-07-27T10:01:54.650Z,959.93
2022-07-27T10:02:50.651Z,959.9
2022-07-27T10:03:50.525Z,959.91
2022-07-27T10:04:50.604Z,959.9
2022-07-27T10:05:50.647Z,959.8
2022-07-27T10:07:01.512Z,959.86
2022-07-27T10:07:50.681Z,959.84
2022-07-27T10:08:50.648Z,959.89
2022-07-27T10:10:50.584Z,959.88
2022-07-27T10:12:54.479Z,959.85
2022-07-27T10:13:50.710Z,959.9
2022-07-27T10:14:50.560Z,959.93
2022-07-27T10:15:50.571Z,959.9
2022-07-27T10:16:50.700Z,959.93
2022-07-27T10:18:50.711Z,959.98
2022-07-27T10:19:51.756Z,959.99
2022-07-27T10:20:50.664Z,960.02
2022-07-27T10:21:50.641Z,960.04
2022-07-27T10:22:50.605Z,959.95
2022-07-27T10:23:50.675Z,959.97
2022-07-27T10:24:53.121Z,959.94
2022-07-27T10:25:50.702Z,959.95
2022-07-27T10:27:50.602Z,959.89
2022-07-27T10:28:50.717Z,959.9
2022-07-27T10:29:50.691Z,959.88
2022-07-27T10:30:54.375Z,959.78
2022-07-27T10:31:50.846Z,959.77
2022-07-27T10:32:50.684Z,959.76
2022-07-27T10:33:50.656Z,959.74
2022-07-27T10:34:50.718Z,959.73
2022-07-27T10:35:50.693Z,959.71
2022-07-27T10:36:50.625Z,959.73
2022-07-27T10:37:50.639Z,959.77
2022-07-27T10:38:50.626Z,959.8
2022-07-27T10:39:50.628Z,959.78
2022-07-27T10:40:50.733Z,959.74
2022-07-27T10:41:50.640Z,959.76
2022-07-27T10:42:53.917Z,959.73
2022-07-27T10:46:50.789Z,959.75
2022-07-27T10:48:50.715Z,959.81
2022-07-27T10:49:50.741Z,959.76
2022-07-27T10:50:50.657Z,959.7
2022-07-27T10:51:50.673Z,959.64
2022-07-27T10:54:11.738Z,959.63
2022-07-27T10:54:53.611Z,959.68
2022-07-27T10:55:50.745Z,959.66
2022-07-27T10:56:50.720Z,959.64
2022-07-27T10:57:50.786Z,959.62
2022-07-27T10:58:50.757Z,959.61
2022-07-27T11:00:07.796Z,959.62
2022-07-27T11:00:54.906Z,959.61
2022-07-27T11:01:50.892Z,959.53
2022-07-27T11:02:50.723Z,959.49
2022-07-27T11:03:50.803Z,959.52
2022-07-27T11:05:59.856Z,959.54
2022-07-27T11:08:13.703Z,959.56
2022-07-27T11:09:08.714Z,959.57
2022-07-27T11:10:05.052Z,959.53
2022-07-27T11:10:50.942Z,959.48
2022-07-27T11:11:50.848Z,959.4
2022-07-27T11:12:50.813Z,959.37
2022-07-27T11:13:50.764Z,959.42
2022-07-27T11:14:50.730Z,959.43
2022-07-27T11:15:55.817Z,959.38
2022-07-27T11:16:55.745Z,959.41
2022-07-27T11:18:03.179Z,959.45
2022-07-27T11:18:52.984Z,959.4
2022-07-27T11:19:50.860Z,959.44
2022-07-27T11:20:50.840Z,959.41
2022-07-27T11:21:50.818Z,959.43
2022-07-27T11:23:51.718Z,959.4
2022-07-27T11:24:50.839Z,959.39
2022-07-27T11:25:50.786Z,959.42
2022-07-27T11:26:50.873Z,959.4
2022-07-27T11:27:50.757Z,959.37
2022-07-27T11:29:50.863Z,959.35
2022-07-27T11:32:50.773Z,959.38
2022-07-27T11:33:50.778Z,959.35
2022-07-27T11:34:50.830Z,959.29
2022-07-27T11:35:50.770Z,959.28
2022-07-27T11:36:50.772Z,959.23
2022-07-27T11:37:50.931Z,959.25
2022-07-27T11:38:50.885Z,959.27
2022-07-27T11:40:04.252Z,959.26
2022-07-27T11:40:56.618Z,959.25
2022-07-27T11:42:08.283Z,959.26
2022-07-27T11:42:50.905Z,959.24
2022-07-27T11:43:50.791Z,959.26
2022-07-27T11:44:51.183Z,959.28
2022-07-27T11:45:50.875Z,959.27
2022-07-27T11:46:50.917Z,959.31
2022-07-27T11:49:05.815Z,959.33
2022-07-27T11:49:51.226Z,959.3
2022-07-27T11:50:50.809Z,959.39
2022-07-27T11:51:50.810Z,959.4
2022-07-27T11:52:50.925Z,959.41
2022-07-27T11:54:50.861Z,959.4
2022-07-27T11:55:50.931Z,959.37
2022-07-27T11:56:50.899Z,959.36
2022-07-27T11:57:50.834Z,959.35
2022-07-27T11:58:50.945Z,959.34
2022-07-27T11:59:50.845Z,959.25
2022-07-27T12:00:50.832Z,959.26
2022-07-27T12:01:50.943Z,959.18
2022-07-27T12:02:50.988Z,959.14
2022-07-27T12:03:50.840Z,959.12
2022-07-27T12:04:51.050Z,959.13
2022-07-27T12:06:50.874Z,959.1
2022-07-27T12:07:50.962Z,959.21
2022-07-27T12:08:50.926Z,959.2
2022-07-27T12:09:50.910Z,959.21
2022-07-27T12:11:50.917Z,959.18
2022-07-27T12:13:50.961Z,959.17
2022-07-27T12:14:50.949Z,959.22
2022-07-27T12:15:50.879Z,959.17
2022-07-27T12:16:51.003Z,959.2
2022-07-27T12:17:50.880Z,959.24
2022-07-27T12:18:51.000Z,959.31
2022-07-27T12:19:50.887Z,959.36
2022-07-27T12:20:50.930Z,959.31
2022-07-27T12:21:51.009Z,959.24
2022-07-27T12:22:50.915Z,959.2
2022-07-27T12:23:50.899Z,959.22
2022-07-27T12:24:51.287Z,959.24
2022-07-27T12:25:50.973Z,959.27
2022-07-27T12:26:50.944Z,959.22
2022-07-27T12:27:51.026Z,959.14
2022-07-27T12:28:50.917Z,959.12
2022-07-27T12:29:50.916Z,959.13
2022-07-27T12:30:51.099Z,959.11
2022-07-27T12:31:50.984Z,959.15
2022-07-27T12:32:55.311Z,959.12
2022-07-27T12:33:51.713Z,959.14
2022-07-27T12:34:51.144Z,959.16
2022-07-27T12:35:50.922Z,959.12
2022-07-27T12:37:50.943Z,959.1
2022-07-27T12:38:50.992Z,959.06
2022-07-27T12:39:50.928Z,959
2022-07-27T12:40:51.030Z,959.02
2022-07-27T12:41:51.060Z,959.05
2022-07-27T12:42:51.030Z,959.07
2022-07-27T12:44:50.964Z,959.09
2022-07-27T12:45:51.062Z,959.11
2022-07-27T12:46:50.959Z,959.07
2022-07-27T12:47:50.955Z,959.01
2022-07-27T12:49:51.005Z,959.03
2022-07-27T12:50:51.071Z,959.1
2022-07-27T12:51:51.040Z,959.06
2022-07-27T12:52:51.072Z,959.01
2022-07-27T12:53:51.074Z,959.03
2022-07-27T12:54:51.047Z,959.05
2022-07-27T12:55:51.012Z,958.95
2022-07-27T12:56:51.086Z,959.06
2022-07-27T12:57:55.994Z,959.05
2022-07-27T12:58:51.140Z,959.09
2022-07-27T12:59:51.078Z,959.04
2022-07-27T13:00:51.074Z,959.02
2022-07-27T13:01:51.138Z,959.01
2022-07-27T13:03:51.061Z,959.02
2022-07-27T13:04:51.009Z,959.01
2022-07-27T13:05:51.016Z,959.05
2022-07-27T13:06:51.014Z,959.04
2022-07-27T13:07:51.133Z,958.99
2022-07-27T13:08:51.006Z,958.95
2022-07-27T13:10:02.491Z,958.92
2022-07-27T13:10:51.188Z,958.98
2022-07-27T13:11:51.026Z,959.01
2022-07-27T13:12:51.028Z,959.02
2022-07-27T13:13:51.030Z,959.04
2022-07-27T13:14:51.026Z,959.07
2022-07-27T13:15:51.023Z,959
2022-07-27T13:16:51.066Z,959.04
2022-07-27T13:17:51.107Z,959.07
2022-07-27T13:19:51.055Z,959.04
2022-07-27T13:20:51.042Z,959.08
2022-07-27T13:22:51.060Z,959.03
2022-07-27T13:24:51.057Z,959
2022-07-27T13:25:51.150Z,959.02
2022-07-27T13:26:51.126Z,958.96
2022-07-27T13:27:51.089Z,958.97
2022-07-27T13:28:51.159Z,959.01
2022-07-27T13:29:51.168Z,958.91
2022-07-27T13:30:51.081Z,958.87
2022-07-27T13:31:55.053Z,958.82
2022-07-27T13:33:51.100Z,958.79
2022-07-27T13:34:51.106Z,958.77
2022-07-27T13:35:51.762Z,958.75
2022-07-27T13:36:51.097Z,958.74
2022-07-27T13:37:51.175Z,958.76
2022-07-27T13:38:51.136Z,958.8
2022-07-27T13:39:51.191Z,958.79
2022-07-27T13:40:51.097Z,958.78
2022-07-27T13:42:51.099Z,958.8
2022-07-27T13:43:51.103Z,958.82
2022-07-27T13:45:04.105Z,958.85
2022-07-27T13:45:51.390Z,958.92
2022-07-27T13:46:51.109Z,958.88
2022-07-27T13:47:51.144Z,958.86
2022-07-27T13:48:51.137Z,958.83
2022-07-27T13:49:51.140Z,958.86
2022-07-27T13:50:51.225Z,958.77
2022-07-27T13:51:51.157Z,958.71
2022-07-27T13:52:51.184Z,958.67
2022-07-27T13:53:51.424Z,958.6
2022-07-27T13:54:51.131Z,958.61
2022-07-27T13:55:51.193Z,958.58
2022-07-27T13:57:51.226Z,958.6
2022-07-27T13:58:51.217Z,958.57
2022-07-27T14:00:51.269Z,958.56
2022-07-27T14:01:51.338Z,958.61
2022-07-27T14:02:51.167Z,958.6
2022-07-27T14:03:51.238Z,958.63
2022-07-27T14:04:51.205Z,958.59
2022-07-27T14:06:51.238Z,958.58
2022-07-27T14:07:51.204Z,958.6
2022-07-27T14:08:51.169Z,958.54
2022-07-27T14:09:51.166Z,958.48
2022-07-27T14:10:51.404Z,958.51
2022-07-27T14:11:52.685Z,958.48
2022-07-27T14:12:55.512Z,958.47
2022-07-27T14:13:51.358Z,958.5
2022-07-27T14:14:51.183Z,958.48
2022-07-27T14:15:53.853Z,958.51
2022-07-27T14:16:51.278Z,958.56
2022-07-27T14:17:51.187Z,958.53
2022-07-27T14:18:51.193Z,958.48
2022-07-27T14:19:51.220Z,958.42
2022-07-27T14:21:51.193Z,958.39
2022-07-27T14:22:51.261Z,958.4
2022-07-27T14:24:51.290Z,958.42
2022-07-27T14:25:51.327Z,958.38
2022-07-27T14:26:51.212Z,958.39
2022-07-27T14:27:51.267Z,958.37
2022-07-27T14:28:51.216Z,958.38
2022-07-27T14:30:51.263Z,958.34
2022-07-27T14:31:51.380Z,958.41
2022-07-27T14:32:51.306Z,958.42
2022-07-27T14:33:51.273Z,958.46
2022-07-27T14:34:51.337Z,958.45
2022-07-27T14:35:51.302Z,958.42
2022-07-27T14:36:51.295Z,958.4
2022-07-27T14:37:51.342Z,958.38
2022-07-27T14:38:51.240Z,958.37